createdAt,value
2018-12-04T00:02:17.362Z,10.50
2018-12-04T00:04:49.708Z,10.50
2018-12-04T00:07:36.071Z,10.50
2018-12-04T00:10:07.041Z,10.50
2018-12-04T00:12:41.962Z,10.60
2018-12-04T00:15:14.353Z,10.60
2018-12-04T00:17:48.778Z,10.60
2018-12-04T00:20:22.305Z,10.70
2018-12-04T00:22:51.761Z,10.60
2018-12-04T00:25:36.530Z,10.70
2018-12-04T00:28:07.027Z,10.70
2018-12-04T00:30:41.507Z,10.70
2018-12-04T00:33:10.017Z,10.80
2018-12-04T00:35:44.989Z,10.80
2018-12-04T00:38:15.427Z,10.80
2018-12-04T00:43:38.325Z,10.80
2018-12-04T00:49:05.865Z,10.60
2018-12-04T00:51:36.294Z,10.60
2018-12-04T00:54:12.142Z,10.50
2018-12-04T00:56:40.559Z,10.50
2018-12-04T00:59:16.472Z,10.50
2018-12-04T01:01:44.874Z,10.50
2018-12-04T01:04:14.306Z,10.50
2018-12-04T01:06:43.714Z,10.60
2018-12-04T01:09:12.075Z,10.60
2018-12-04T01:11:47.181Z,10.60
2018-12-04T01:14:24.398Z,10.60
2018-12-04T01:16:52.725Z,10.70
2018-12-04T01:19:22.143Z,10.70
2018-12-04T01:27:38.385Z,10.70
2018-12-04T01:30:08.944Z,10.70
2018-12-04T01:32:39.331Z,10.70
2018-12-04T01:38:09.142Z,10.70
2018-12-04T01:40:39.518Z,10.70
2018-12-04T01:43:14.568Z,10.70
2018-12-04T01:46:03.831Z,10.70
2018-12-04T01:51:40.532Z,10.70
2018-12-04T01:54:09.025Z,10.70
2018-12-04T01:56:46.180Z,10.70
2018-12-04T01:59:17.056Z,10.70
2018-12-04T02:02:03.013Z,10.70
2018-12-04T02:04:33.451Z,10.80
2018-12-04T02:07:07.833Z,10.70
2018-12-04T02:09:40.298Z,10.70
2018-12-04T02:12:14.892Z,10.70
2018-12-04T02:14:45.283Z,10.70
2018-12-04T02:17:20.195Z,10.70
2018-12-04T02:19:53.525Z,10.70
2018-12-04T02:22:25.922Z,10.80
2018-12-04T02:24:56.318Z,10.80
2018-12-04T02:27:34.418Z,10.70
2018-12-04T02:30:04.358Z,10.80
2018-12-04T02:32:33.718Z,10.80
2018-12-04T02:35:07.277Z,10.70
2018-12-04T02:37:36.758Z,10.70
2018-12-04T02:40:07.617Z,10.70
2018-12-04T02:42:36.033Z,10.70
2018-12-04T02:45:05.037Z,10.70
2018-12-04T02:47:33.402Z,10.70
2018-12-04T02:50:01.828Z,10.70
2018-12-04T02:52:35.107Z,10.80
2018-12-04T02:55:07.325Z,10.80
2018-12-04T02:57:36.681Z,10.70
2018-12-04T03:00:14.787Z,10.70
2018-12-04T03:02:45.332Z,10.70
2018-12-04T03:05:21.284Z,10.70
2018-12-04T03:07:50.747Z,10.70
2018-12-04T03:10:25.827Z,10.70
2018-12-04T03:13:12.240Z,10.70
2018-12-04T03:15:46.212Z,10.70
2018-12-04T03:18:23.075Z,10.70
2018-12-04T03:20:57.975Z,10.80
2018-12-04T03:26:23.477Z,10.80
2018-12-04T03:28:53.229Z,10.70
2018-12-04T03:31:29.225Z,10.70
2018-12-04T03:33:57.613Z,10.70
2018-12-04T03:36:38.155Z,10.70
2018-12-04T03:39:08.241Z,10.70
2018-12-04T03:41:36.688Z,10.80
2018-12-04T03:44:19.468Z,10.70
2018-12-04T03:46:48.019Z,10.70
2018-12-04T03:49:16.465Z,10.70
2018-12-04T03:51:45.869Z,10.80
2018-12-04T03:54:16.386Z,10.80
2018-12-04T03:56:46.825Z,10.80
2018-12-04T03:59:17.745Z,10.80
2018-12-04T04:02:04.968Z,10.80
2018-12-04T04:04:39.838Z,10.80
2018-12-04T04:07:24.839Z,10.80
2018-12-04T04:10:02.215Z,10.80
2018-12-04T04:12:30.682Z,10.80
2018-12-04T04:21:02.934Z,10.80
2018-12-04T04:23:31.465Z,10.80
2018-12-04T04:26:04.871Z,10.80
2018-12-04T04:28:37.330Z,10.80
2018-12-04T04:31:07.739Z,10.80
2018-12-04T04:33:37.163Z,10.80
2018-12-04T04:36:05.636Z,10.80
2018-12-04T04:38:40.517Z,10.80
2018-12-04T04:41:09.966Z,10.80
2018-12-04T04:43:52.120Z,10.80
2018-12-04T04:46:33.625Z,10.90
2018-12-04T04:49:24.970Z,10.80
2018-12-04T04:52:07.531Z,10.80
2018-12-04T04:54:44.605Z,10.80
2018-12-04T04:57:13.041Z,10.80
2018-12-04T05:02:51.377Z,10.80
2018-12-04T05:08:11.237Z,10.70
2018-12-04T05:10:46.280Z,10.80
2018-12-04T05:13:25.292Z,10.70
2018-12-04T05:15:54.711Z,10.80
2018-12-04T05:18:23.065Z,10.70
2018-12-04T05:21:08.976Z,10.70
2018-12-04T05:26:29.499Z,10.70
2018-12-04T05:28:59.895Z,10.70
2018-12-04T05:31:36.901Z,10.70
2018-12-04T05:34:07.773Z,10.70
2018-12-04T05:36:51.456Z,10.70
2018-12-04T05:39:31.000Z,10.70
2018-12-04T05:42:06.047Z,10.70
2018-12-04T05:44:40.366Z,10.70
2018-12-04T05:50:13.573Z,10.60
2018-12-04T05:55:36.818Z,10.60
2018-12-04T05:58:17.481Z,10.60
2018-12-04T06:01:01.694Z,10.60
2018-12-04T06:03:34.177Z,10.50
2018-12-04T06:06:13.222Z,10.50
2018-12-04T06:08:50.339Z,10.50
2018-12-04T06:11:19.757Z,10.50
2018-12-04T06:13:54.691Z,10.50
2018-12-04T06:16:29.681Z,10.50
2018-12-04T06:19:07.726Z,10.50
2018-12-04T06:21:42.674Z,10.50
2018-12-04T06:24:12.073Z,10.50
2018-12-04T06:26:44.423Z,10.50
2018-12-04T06:29:28.146Z,10.40
2018-12-04T06:31:58.961Z,10.40
2018-12-04T06:34:30.353Z,10.50
2018-12-04T06:37:00.735Z,10.50
2018-12-04T06:39:33.182Z,10.50
2018-12-04T06:42:08.114Z,10.50
2018-12-04T06:44:40.500Z,10.50
2018-12-04T06:47:12.954Z,10.50
2018-12-04T06:49:41.395Z,10.50
2018-12-04T06:52:09.855Z,10.40
2018-12-04T06:54:38.185Z,10.40
2018-12-04T06:57:07.602Z,10.30
2018-12-04T06:59:36.015Z,10.20
2018-12-04T07:02:04.624Z,10.20
2018-12-04T07:04:33.068Z,10.20
2018-12-04T07:07:01.471Z,10.10
2018-12-04T07:09:29.880Z,10.10
2018-12-04T07:12:02.445Z,10.10
2018-12-04T07:14:28.694Z,10.10
2018-12-04T07:16:57.091Z,10.10
2018-12-04T07:19:25.459Z,10.10
2018-12-04T07:21:53.886Z,10.00
2018-12-04T07:24:22.286Z,9.90
2018-12-04T07:26:51.056Z,9.90
2018-12-04T07:29:19.451Z,9.80
2018-12-04T07:31:47.859Z,9.70
2018-12-04T07:34:16.242Z,9.70
2018-12-04T07:36:44.617Z,9.70
2018-12-04T07:39:12.993Z,9.70
2018-12-04T07:41:41.384Z,9.80
2018-12-04T07:44:10.792Z,9.90
2018-12-04T07:46:39.195Z,9.90
2018-12-04T07:49:07.603Z,9.90
2018-12-04T07:51:36.127Z,9.90
2018-12-04T07:54:04.578Z,10.00
2018-12-04T07:56:33.016Z,10.10
2018-12-04T07:59:01.397Z,10.20
2018-12-04T08:01:29.787Z,10.20
2018-12-04T08:03:58.099Z,10.20
2018-12-04T08:06:26.497Z,10.20
2018-12-04T08:08:54.877Z,10.20
2018-12-04T08:11:24.666Z,10.20
2018-12-04T08:13:53.126Z,10.20
2018-12-04T08:16:21.514Z,10.20
2018-12-04T08:18:49.994Z,10.20
2018-12-04T08:21:18.395Z,10.20
2018-12-04T08:23:47.296Z,10.10
2018-12-04T08:26:19.264Z,10.20
2018-12-04T08:28:47.698Z,10.20
2018-12-04T08:31:16.015Z,10.20
2018-12-04T08:33:44.618Z,10.20
2018-12-04T08:36:13.015Z,10.20
2018-12-04T08:38:41.497Z,10.20
2018-12-04T08:41:09.894Z,10.20
2018-12-04T08:43:38.382Z,10.20
2018-12-04T08:46:06.849Z,10.20
2018-12-04T08:48:35.314Z,10.20
2018-12-04T08:51:03.709Z,10.30
2018-12-04T08:53:32.070Z,10.20
2018-12-04T08:56:00.494Z,10.20
2018-12-04T08:58:28.979Z,10.20
2018-12-04T09:00:57.425Z,10.20
2018-12-04T09:03:25.824Z,10.20
2018-12-04T09:05:55.419Z,10.20
2018-12-04T09:08:23.802Z,10.20
2018-12-04T09:10:52.202Z,10.20
2018-12-04T09:13:21.767Z,10.30
2018-12-04T09:15:50.117Z,10.30
2018-12-04T09:18:18.569Z,10.30
2018-12-04T09:20:47.004Z,10.20
2018-12-04T09:23:15.446Z,10.10
2018-12-04T09:25:44.074Z,10.10
2018-12-04T09:28:12.685Z,10.10
2018-12-04T09:30:41.121Z,10.10
2018-12-04T09:33:10.806Z,10.10
2018-12-04T09:35:39.273Z,10.20
2018-12-04T09:38:07.766Z,10.30
2018-12-04T09:40:36.233Z,10.30
2018-12-04T09:43:04.750Z,10.30
2018-12-04T09:45:33.181Z,10.20
2018-12-04T09:48:01.574Z,10.20
2018-12-04T09:50:30.042Z,10.20
2018-12-04T09:52:58.418Z,10.30
2018-12-04T09:55:26.768Z,10.50
2018-12-04T09:57:55.137Z,10.60
2018-12-04T10:00:23.569Z,10.70
2018-12-04T10:02:53.321Z,10.70
2018-12-04T10:05:21.704Z,10.70
2018-12-04T10:07:51.583Z,10.70
2018-12-04T10:10:21.089Z,10.60
2018-12-04T10:12:52.122Z,10.50
2018-12-04T10:15:20.654Z,10.50
2018-12-04T10:17:49.215Z,10.50
2018-12-04T10:20:19.872Z,10.40
2018-12-04T10:22:48.299Z,10.40
2018-12-04T10:25:17.015Z,10.40
2018-12-04T10:27:45.484Z,10.40
2018-12-04T10:30:14.829Z,10.40
2018-12-04T10:32:45.517Z,10.40
2018-12-04T10:35:14.166Z,10.40
2018-12-04T10:37:42.514Z,10.30
2018-12-04T10:40:10.931Z,10.40
2018-12-04T10:42:39.282Z,10.40
2018-12-04T10:45:08.745Z,10.40
2018-12-04T10:47:38.163Z,10.40
2018-12-04T10:50:09.265Z,10.40
2018-12-04T10:52:38.677Z,10.40
2018-12-04T10:55:13.617Z,10.50
2018-12-04T10:57:42.101Z,10.50
2018-12-04T11:00:16.023Z,10.50
2018-12-04T11:02:48.262Z,10.40
2018-12-04T11:05:18.566Z,10.40
2018-12-04T11:07:47.074Z,10.40
2018-12-04T11:10:15.585Z,10.40
2018-12-04T11:12:44.033Z,10.40
2018-12-04T11:15:14.018Z,10.40
2018-12-04T11:17:42.435Z,10.40
2018-12-04T11:20:10.936Z,10.40
2018-12-04T11:22:39.463Z,10.40
2018-12-04T11:25:09.347Z,10.40
2018-12-04T11:27:38.812Z,10.40
2018-12-04T11:30:10.636Z,10.30
2018-12-04T11:32:39.066Z,10.30
2018-12-04T11:35:07.657Z,10.10
2018-12-04T11:37:42.288Z,10.10
2018-12-04T11:40:23.816Z,10.00
2018-12-04T11:42:53.318Z,10.00
2018-12-04T11:45:27.343Z,9.90
2018-12-04T11:50:46.274Z,9.80
2018-12-04T11:53:14.718Z,9.90
2018-12-04T11:55:43.372Z,9.90
2018-12-04T11:58:13.943Z,9.90
2018-12-04T12:00:43.403Z,10.00
2018-12-04T12:03:25.940Z,9.90
2018-12-04T12:06:02.723Z,9.90
2018-12-04T12:11:14.815Z,9.90
2018-12-04T12:13:50.490Z,10.00
2018-12-04T12:16:26.421Z,10.00
2018-12-04T12:18:54.853Z,10.10
2018-12-04T12:21:23.367Z,10.10
2018-12-04T12:23:51.766Z,10.20
2018-12-04T12:26:20.197Z,10.30
2018-12-04T12:28:48.765Z,10.40
2018-12-04T12:31:18.529Z,10.40
2018-12-04T12:33:46.961Z,10.40
2018-12-04T12:36:17.334Z,10.40
2018-12-04T12:38:46.538Z,10.40
2018-12-04T12:41:14.998Z,10.40
2018-12-04T12:43:44.489Z,10.30
2018-12-04T12:46:15.579Z,10.30
2018-12-04T12:48:44.013Z,10.20
2018-12-04T12:51:12.496Z,10.20
2018-12-04T12:53:41.000Z,10.20
2018-12-04T12:56:09.970Z,10.20
2018-12-04T12:58:38.474Z,10.20
2018-12-04T13:01:10.539Z,10.20
2018-12-04T13:03:40.246Z,10.30
2018-12-04T13:06:19.765Z,10.20
2018-12-04T13:08:57.040Z,10.20
2018-12-04T13:11:27.562Z,10.10
2018-12-04T13:13:56.213Z,10.10
2018-12-04T13:16:30.854Z,10.20
2018-12-04T13:19:06.116Z,10.20
2018-12-04T13:21:34.618Z,10.20
2018-12-04T13:24:03.132Z,10.20
2018-12-04T13:26:31.601Z,10.10
2018-12-04T13:29:00.490Z,10.00
2018-12-04T13:31:30.370Z,10.00
2018-12-04T13:34:00.442Z,10.00
2018-12-04T13:36:32.212Z,9.90
2018-12-04T13:39:01.493Z,9.90
2018-12-04T13:41:30.081Z,9.90
2018-12-04T13:44:00.827Z,9.90
2018-12-04T13:46:30.178Z,9.90
2018-12-04T13:48:58.768Z,10.00
2018-12-04T13:51:27.282Z,9.90
2018-12-04T13:53:57.451Z,10.00
2018-12-04T13:56:25.858Z,9.90
2018-12-04T13:58:59.401Z,9.80
2018-12-04T14:04:37.317Z,9.90
2018-12-04T14:07:07.758Z,9.80
2018-12-04T14:09:36.228Z,9.80
2018-12-04T14:12:04.746Z,9.70
2018-12-04T14:14:33.250Z,9.70
2018-12-04T14:17:02.195Z,9.70
2018-12-04T14:19:30.797Z,9.60
2018-12-04T14:21:59.435Z,9.50
2018-12-04T14:24:28.069Z,9.50
2018-12-04T14:26:57.839Z,9.40
2018-12-04T14:29:26.425Z,9.40
2018-12-04T14:32:05.465Z,9.40
2018-12-04T14:34:35.019Z,9.30
2018-12-04T14:37:03.600Z,9.30
2018-12-04T14:39:32.166Z,9.30
2018-12-04T14:42:00.836Z,9.30
2018-12-04T14:44:29.276Z,9.20
2018-12-04T14:46:57.743Z,9.20
2018-12-04T14:49:26.183Z,9.20
2018-12-04T14:51:55.189Z,9.10
2018-12-04T14:54:23.661Z,9.00
2018-12-04T14:56:53.585Z,8.90
2018-12-04T14:59:22.142Z,8.80
2018-12-04T15:01:50.740Z,8.70
2018-12-04T15:04:19.344Z,8.60
2018-12-04T15:06:54.329Z,8.50
2018-12-04T15:09:24.794Z,8.40
2018-12-04T15:11:54.306Z,8.40
2018-12-04T15:14:24.999Z,8.30
2018-12-04T15:19:57.717Z,8.20
2018-12-04T15:25:18.563Z,7.90
2018-12-04T15:27:47.631Z,7.80
2018-12-04T15:30:21.477Z,7.70
2018-12-04T15:32:49.981Z,7.70
2018-12-04T15:35:20.408Z,7.70
2018-12-04T15:37:53.770Z,7.70
2018-12-04T15:40:23.255Z,7.60
2018-12-04T15:42:55.203Z,7.60
2018-12-04T15:45:24.614Z,7.50
2018-12-04T15:47:57.135Z,7.50
2018-12-04T15:50:33.252Z,7.50
2018-12-04T15:53:07.101Z,7.40
2018-12-04T15:55:36.578Z,7.40
2018-12-04T15:58:06.953Z,7.30
2018-12-04T16:00:35.346Z,7.30
2018-12-04T16:03:05.916Z,7.30
2018-12-04T16:05:40.835Z,7.30
2018-12-04T16:08:10.213Z,7.20
2018-12-04T16:10:43.227Z,7.20
2018-12-04T16:13:16.705Z,7.20
2018-12-04T16:15:47.472Z,7.00
2018-12-04T16:18:24.715Z,6.90
2018-12-04T16:24:02.270Z,6.70
2018-12-04T16:29:29.121Z,6.70
2018-12-04T16:31:57.576Z,6.60
2018-12-04T16:34:26.038Z,6.60
2018-12-04T16:36:54.518Z,6.50
2018-12-04T16:39:22.981Z,6.50
2018-12-04T16:41:52.201Z,6.50
2018-12-04T16:44:20.853Z,6.40
2018-12-04T16:46:49.293Z,6.40
2018-12-04T16:49:17.742Z,6.40
2018-12-04T16:51:46.329Z,6.30
2018-12-04T16:54:14.851Z,6.30
2018-12-04T16:56:44.307Z,6.30
2018-12-04T16:59:12.867Z,6.20
2018-12-04T17:01:41.302Z,6.20
2018-12-04T17:04:09.798Z,6.20
2018-12-04T17:06:38.251Z,6.20
2018-12-04T17:09:08.438Z,6.10
2018-12-04T17:11:36.934Z,6.00
2018-12-04T17:14:05.442Z,6.00
2018-12-04T17:16:33.998Z,6.00
2018-12-04T17:19:03.159Z,5.90
2018-12-04T17:21:31.589Z,5.80
2018-12-04T17:24:00.053Z,5.70
2018-12-04T17:26:28.555Z,5.70
2018-12-04T17:28:57.724Z,5.70
2018-12-04T17:31:26.273Z,5.70
2018-12-04T17:33:55.154Z,5.70
2018-12-04T17:36:23.914Z,5.60
2018-12-04T17:38:52.358Z,5.60
2018-12-04T17:41:20.815Z,5.50
2018-12-04T17:43:49.588Z,5.40
2018-12-04T17:46:19.507Z,5.40
2018-12-04T17:48:48.241Z,5.30
2018-12-04T17:51:17.150Z,5.30
2018-12-04T17:53:45.645Z,5.30
2018-12-04T17:56:14.676Z,5.20
2018-12-04T17:58:43.103Z,5.20
2018-12-04T18:01:11.697Z,5.20
2018-12-04T18:03:40.182Z,5.20
2018-12-04T18:06:08.606Z,5.20
2018-12-04T18:08:37.174Z,5.20
2018-12-04T18:11:05.669Z,5.10
2018-12-04T18:13:34.210Z,5.10
2018-12-04T18:16:02.689Z,5.10
2018-12-04T18:18:31.174Z,5.00
2018-12-04T18:20:59.614Z,5.00
2018-12-04T18:23:27.982Z,5.00
2018-12-04T18:25:56.353Z,5.00
2018-12-04T18:28:24.981Z,5.00
2018-12-04T18:31:03.620Z,5.00
2018-12-04T18:33:36.110Z,4.90
2018-12-04T18:36:04.652Z,4.90
2018-12-04T18:38:33.050Z,4.90
2018-12-04T18:41:01.491Z,4.90
2018-12-04T18:43:29.917Z,4.90
2018-12-04T18:45:58.427Z,4.90
2018-12-04T18:48:26.970Z,4.90
2018-12-04T18:50:55.689Z,4.90
2018-12-04T18:53:24.159Z,4.90
2018-12-04T18:55:56.048Z,4.80
2018-12-04T18:58:30.362Z,4.70
2018-12-04T19:00:58.741Z,4.70
2018-12-04T19:03:27.215Z,4.70
2018-12-04T19:06:03.075Z,4.70
2018-12-04T19:08:46.380Z,4.70
2018-12-04T19:11:16.055Z,4.60
2018-12-04T19:13:51.878Z,4.50
2018-12-04T19:16:26.397Z,4.50
2018-12-04T19:19:01.017Z,4.40
2018-12-04T19:21:40.942Z,4.30
2018-12-04T19:24:17.932Z,4.30
2018-12-04T19:26:51.237Z,4.20
2018-12-04T19:29:29.494Z,4.20
2018-12-04T19:31:58.003Z,4.20
2018-12-04T19:37:24.682Z,4.20
2018-12-04T19:42:54.564Z,4.20
2018-12-04T19:45:31.498Z,4.20
2018-12-04T19:48:06.670Z,4.20
2018-12-04T19:50:49.497Z,4.10
2018-12-04T19:53:21.998Z,4.10
2018-12-04T19:55:50.472Z,4.00
2018-12-04T19:58:23.772Z,4.10
2018-12-04T20:04:01.852Z,4.00
2018-12-04T20:06:43.181Z,3.90
2018-12-04T20:09:24.912Z,3.80
2018-12-04T20:14:47.944Z,3.80
2018-12-04T20:17:16.709Z,3.80
2018-12-04T20:19:49.413Z,3.80
2018-12-04T20:22:38.629Z,3.80
2018-12-04T20:25:08.645Z,3.80
2018-12-04T20:27:40.992Z,3.80
2018-12-04T20:30:13.489Z,3.70
2018-12-04T20:32:49.723Z,3.60
2018-12-04T20:35:33.372Z,3.60
2018-12-04T20:38:01.888Z,3.50
2018-12-04T20:40:34.599Z,3.50
2018-12-04T20:43:09.472Z,3.40
2018-12-04T20:45:39.156Z,3.40
2018-12-04T20:48:10.160Z,3.40
2018-12-04T20:50:39.779Z,3.50
2018-12-04T20:53:08.399Z,3.50
2018-12-04T20:55:37.144Z,3.50
2018-12-04T20:58:06.036Z,3.50
2018-12-04T21:00:34.594Z,3.50
2018-12-04T21:03:03.178Z,3.60
2018-12-04T21:05:31.645Z,3.60
2018-12-04T21:08:01.513Z,3.50
2018-12-04T21:10:30.116Z,3.50
2018-12-04T21:12:58.683Z,3.40
2018-12-04T21:15:28.226Z,3.30
2018-12-04T21:17:56.802Z,3.30
2018-12-04T21:20:25.417Z,3.30
2018-12-04T21:22:54.796Z,3.30
2018-12-04T21:25:23.275Z,3.30
2018-12-04T21:27:57.066Z,3.20
2018-12-04T21:30:30.980Z,3.10
2018-12-04T21:34:02.525Z,3.00
2018-12-04T21:36:36.475Z,3.00
2018-12-04T21:39:15.744Z,3.00
2018-12-04T21:41:49.467Z,3.00
2018-12-04T21:44:23.245Z,2.90
2018-12-04T21:47:57.793Z,2.90
2018-12-04T21:50:26.460Z,3.00
2018-12-04T21:52:54.937Z,2.90
2018-12-04T21:55:23.380Z,2.90
2018-12-04T21:57:51.844Z,2.90
2018-12-04T22:00:20.473Z,2.90
2018-12-04T22:02:49.003Z,2.90
2018-12-04T22:05:19.384Z,2.90
2018-12-04T22:08:01.028Z,2.80
2018-12-04T22:10:29.506Z,2.80
2018-12-04T22:13:05.286Z,2.80
2018-12-04T22:15:46.871Z,2.70
2018-12-04T22:18:15.261Z,2.70
2018-12-04T22:20:49.668Z,2.80
2018-12-04T22:23:18.090Z,2.80
2018-12-04T22:25:46.495Z,2.80
2018-12-04T22:28:20.703Z,2.90
2018-12-04T22:30:55.634Z,2.80
2018-12-04T22:33:32.686Z,2.80
2018-12-04T22:36:10.973Z,2.80
2018-12-04T22:38:45.413Z,2.80
2018-12-04T22:41:19.831Z,2.80
2018-12-04T22:43:55.402Z,2.80
2018-12-04T22:46:27.574Z,2.80
2018-12-04T22:48:56.864Z,2.70
2018-12-04T22:51:28.871Z,2.70
2018-12-04T22:54:02.062Z,2.70
2018-12-04T22:56:42.844Z,2.60
2018-12-04T22:59:13.105Z,2.60
2018-12-04T23:01:43.565Z,2.60
2018-12-04T23:04:23.558Z,2.60
2018-12-04T23:06:55.978Z,2.60
2018-12-04T23:09:33.056Z,2.60
2018-12-04T23:15:00.675Z,2.60
2018-12-04T23:23:26.995Z,2.60
2018-12-04T23:26:18.022Z,2.60
2018-12-04T23:28:48.594Z,2.60
2018-12-04T23:31:37.411Z,2.60
2018-12-04T23:34:08.321Z,2.50
2018-12-04T23:36:38.734Z,2.50
2018-12-04T23:39:14.676Z,2.40
2018-12-04T23:41:43.011Z,2.40
2018-12-04T23:44:34.254Z,2.40
2018-12-04T23:50:11.721Z,2.50
2018-12-04T23:52:50.754Z,2.50
2018-12-04T23:55:19.352Z,2.50
2018-12-04T23:57:52.704Z,2.50
